Time;durP1;ratioP1;P1;durP2;ratioP2;P2;SDS_P1;SDS_P2;PMS_P1;PMS_P2;Temp;Humidity;BMP_temperature;BMP_pressure;BME280_temperature;BME280_humidity;BME280_pressure;Samples;Min_cycle;Max_cycle;Signal;HPM_P1;HPM_P2
2023/03/25 00:06:38;;;;;;;3.00;1.73;;;11.40;99.30;;;;;;20918422;28;20280;-76
2023/03/25 00:16:39;;;;;;;4.33;1.73;;;11.40;99.50;;;;;;20916929;28;20247;-76
2023/03/25 00:26:41;;;;;;;5.47;1.73;;;11.30;99.60;;;;;;20916629;28;20261;-76
2023/03/25 00:36:44;;;;;;;3.00;1.70;;;11.10;99.30;;;;;;20915779;28;20241;-75
2023/03/25 00:46:46;;;;;;;3.97;1.13;;;11.10;99.60;;;;;;20915459;28;20666;-78
2023/03/25 00:56:48;;;;;;;2.83;1.00;;;11.10;99.00;;;;;;20914460;28;20382;-76
2023/03/25 01:06:50;;;;;;;2.17;1.30;;;10.90;98.60;;;;;;20914072;28;20298;-79
2023/03/25 01:16:53;;;;;;;2.60;1.70;;;11.00;98.60;;;;;;20913621;28;20589;-76
2023/03/25 01:26:55;;;;;;;3.63;1.60;;;11.00;98.60;;;;;;20912796;28;20219;-76
2023/03/25 01:36:57;;;;;;;3.97;1.50;;;10.80;98.40;;;;;;20911758;28;20268;-75
2023/03/25 01:47:00;;;;;;;2.80;1.70;;;10.60;98.40;;;;;;20911744;28;20217;-76
2023/03/25 01:57:02;;;;;;;2.07;1.20;;;10.60;98.20;;;;;;20911729;28;20249;-76
2023/03/25 02:07:07;;;;;;;2.20;1.30;;;10.50;98.00;;;;;;20911085;28;20553;-75
2023/03/25 02:17:53;;;;;;;2.63;1.10;;;10.40;97.10;;;;;;20910505;28;20240;-79
2023/03/25 02:28:02;;;;;;;4.17;1.40;;;10.40;96.80;;;;;;20910599;28;20299;-75
2023/03/25 02:38:18;;;;;;;3.40;1.10;;;10.40;96.80;;;;;;20909645;28;20309;-77
2023/03/25 02:48:26;;;;;;;3.10;1.40;;;10.40;96.60;;;;;;20922323;28;20208;-76
2023/03/25 02:58:29;;;;;;;5.47;1.37;;;10.50;96.60;;;;;;20924326;28;20228;-76
2023/03/25 03:08:49;;;;;;;3.73;1.33;;;10.50;97.00;;;;;;20922981;28;20205;-76
2023/03/25 03:19:07;;;;;;;5.97;1.20;;;10.40;97.80;;;;;;20922357;28;20239;-77
2023/03/25 03:29:11;;;;;;;3.03;1.10;;;10.40;98.20;;;;;;20922530;28;20204;-79
2023/03/25 03:39:27;;;;;;;1.93;0.60;;;9.80;99.50;;;;;;20922416;28;20243;-76
2023/03/25 03:49:38;;;;;;;1.70;0.80;;;9.60;99.20;;;;;;20920137;28;20208;-76
2023/03/25 04:00:08;;;;;;;1.47;0.57;;;9.50;98.50;;;;;;20919478;28;20289;-78
2023/03/25 04:10:28;;;;;;;1.10;0.70;;;9.40;98.30;;;;;;20917016;28;20214;-81
2023/03/25 04:20:35;;;;;;;3.50;0.93;;;9.40;98.10;;;;;;20917577;28;20230;-79
2023/03/25 04:30:37;;;;;;;1.57;1.00;;;9.40;97.90;;;;;;20919814;28;20579;-79
2023/03/25 04:40:39;;;;;;;1.10;0.80;;;9.60;97.80;;;;;;20916003;28;20598;-82
2023/03/25 04:58:01;;;;;;;2.90;1.10;;;9.60;97.10;;;;;;21068529;27;20582;-78
2023/03/25 05:08:03;;;;;;;3.43;1.50;;;9.60;96.60;;;;;;21066946;28;20653;-79
2023/03/25 05:18:12;;;;;;;4.30;1.27;;;9.70;96.30;;;;;;21066580;28;20209;-79
2023/03/25 05:28:14;;;;;;;2.87;1.13;;;9.70;95.90;;;;;;21066645;28;20606;-78
2023/03/25 05:38:17;;;;;;;2.03;1.13;;;9.70;95.80;;;;;;21064992;28;20209;-80
2023/03/25 05:48:19;;;;;;;5.20;2.27;;;9.80;95.40;;;;;;21066638;28;20239;-77
2023/03/25 05:58:20;;;;;;;2.23;1.07;;;9.80;95.10;;;;;;21064622;28;20606;-77
2023/03/25 06:08:24;;;;;;;2.80;1.10;;;9.80;95.30;;;;;;21012099;28;20262;-79
2023/03/25 06:18:26;;;;;;;6.10;1.30;;;9.80;95.60;;;;;;21005937;28;20205;-77
2023/03/25 06:28:28;;;;;;;2.57;1.03;;;10.00;95.40;;;;;;21004628;28;20232;-76
2023/03/25 06:38:32;;;;;;;5.30;1.47;;;10.00;95.60;;;;;;21003861;28;20200;-75
2023/03/25 06:48:34;;;;;;;3.90;1.53;;;10.00;95.90;;;;;;21002817;28;20240;-77
2023/03/25 06:58:36;;;;;;;4.33;1.50;;;10.10;96.00;;;;;;21002813;28;20206;-73
2023/03/25 07:08:38;;;;;;;4.83;1.47;;;10.80;95.80;;;;;;21001212;28;20232;-77
2023/03/25 07:18:40;;;;;;;5.83;1.50;;;11.00;95.30;;;;;;20999067;28;20210;-76
2023/03/25 07:28:41;;;;;;;5.90;1.27;;;11.40;94.60;;;;;;20998573;28;20293;-75
2023/03/25 07:38:43;;;;;;;4.07;1.50;;;11.10;93.60;;;;;;21000648;28;20239;-76
2023/03/25 07:48:45;;;;;;;3.70;1.60;;;11.20;93.90;;;;;;20996653;28;20232;-75
2023/03/25 07:58:48;;;;;;;5.30;1.50;;;11.20;93.70;;;;;;20997190;28;20628;-75
2023/03/25 08:08:50;;;;;;;5.67;1.53;;;11.30;93.60;;;;;;20996482;28;20232;-78
2023/03/25 08:18:51;;;;;;;7.33;1.63;;;11.20;92.90;;;;;;20999390;28;20232;-77
2023/03/25 08:28:56;;;;;;;5.53;1.77;;;11.40;92.80;;;;;;20995338;28;20829;-77
2023/03/25 08:38:58;;;;;;;7.13;1.80;;;11.90;91.50;;;;;;20995085;28;20313;-77
2023/03/25 08:49:00;;;;;;;8.13;2.30;;;12.10;90.20;;;;;;20994048;28;20589;-77
2023/03/25 08:59:01;;;;;;;5.43;1.73;;;12.40;88.60;;;;;;20992228;28;20202;-77
2023/03/25 09:09:04;;;;;;;8.57;2.10;;;12.70;87.50;;;;;;20992077;28;20638;-76
2023/03/25 11:13:33;;;;;;;1.80;0.93;;;12.00;93.40;;;;;;21020798;27;20541;-77
2023/03/25 11:23:43;;;;;;;5.57;1.17;;;12.20;94.30;;;;;;21013873;28;20223;-77
2023/03/25 11:34:02;;;;;;;1.77;1.00;;;12.30;93.70;;;;;;21030820;28;20207;-78
2023/03/25 11:44:05;;;;;;;6.53;1.70;;;12.20;93.30;;;;;;21042618;28;20227;-78
2023/03/25 11:54:11;;;;;;;3.50;1.30;;;9.90;99.90;;;;;;20993842;28;20206;-76
2023/03/25 12:04:21;;;;;;;4.30;1.80;;;10.30;99.90;;;;;;20979663;28;20290;-75
2023/03/25 12:14:49;;;;;;;4.90;1.53;;;10.50;99.90;;;;;;20978217;28;20259;-75
2023/03/25 12:25:25;;;;;;;4.03;1.50;;;11.00;99.90;;;;;;20922785;28;20235;-75
2023/03/25 12:35:39;;;;;;;1.23;1.00;;;10.90;99.90;;;;;;20923071;28;20205;-74
2023/03/25 12:45:55;;;;;;;1.80;1.00;;;10.10;99.90;;;;;;20921912;28;20238;-78
2023/03/25 12:56:24;;;;;;;1.23;0.60;;;10.70;99.90;;;;;;20921313;28;20228;-76
2023/03/25 13:06:51;;;;;;;1.57;0.93;;;10.80;99.90;;;;;;20941746;28;20297;-77
2023/03/25 13:16:58;;;;;;;2.83;1.07;;;12.10;98.60;;;;;;20985295;28;20206;-79
2023/03/25 13:27:03;;;;;;;2.83;1.00;;;12.30;98.80;;;;;;20919922;28;20263;-75
2023/03/25 13:37:48;;;;;;;3.80;1.00;;;13.10;96.90;;;;;;20940008;28;20211;-74
2023/03/25 13:48:06;;;;;;;3.70;1.10;;;13.80;91.80;;;;;;20995600;28;20252;-78
2023/03/25 13:58:43;;;;;;;6.27;1.20;;;13.70;91.20;;;;;;20999277;28;20266;-79
2023/03/25 14:08:51;;;;;;;3.03;1.33;;;13.10;90.60;;;;;;20995264;28;20243;-79
2023/03/25 14:18:59;;;;;;;2.07;1.00;;;12.60;92.30;;;;;;20983433;28;20234;-75
2023/03/25 14:29:18;;;;;;;2.97;1.10;;;13.90;88.30;;;;;;20994054;28;20703;-72
2023/03/25 14:39:23;;;;;;;2.50;1.17;;;13.50;86.30;;;;;;20994865;28;20685;-73
2023/03/25 14:50:01;;;;;;;3.17;1.23;;;13.20;84.10;;;;;;20994620;28;20234;-75
2023/03/25 15:00:12;;;;;;;3.58;1.00;;;16.90;80.20;;;;;;20994412;28;20216;-76
2023/03/25 15:10:33;;;;;;;1.90;1.00;;;22.90;52.00;;;;;;20994555;28;20287;-76
2023/03/25 15:20:35;;;;;;;4.95;1.02;;;22.60;48.20;;;;;;20993913;28;20230;-80
2023/03/25 15:30:56;;;;;;;3.67;1.10;;;21.90;49.40;;;;;;20993819;28;20260;-77
2023/03/25 15:41:12;;;;;;;3.03;1.00;;;19.20;49.70;;;;;;20994942;28;20647;-77
2023/03/25 15:51:28;;;;;;;3.43;1.20;;;20.00;49.40;;;;;;20996848;28;20300;-78
2023/03/25 16:01:33;;;;;;;4.57;1.40;;;16.80;49.20;;;;;;21008147;28;20218;-72
2023/03/25 16:11:36;;;;;;;2.43;0.93;;;;;;;;;;21007027;28;20241;-72
2023/03/25 16:21:38;;;;;;;2.10;0.93;;;14.90;51.40;;;;;;21005890;28;20255;-77
2023/03/25 16:31:41;;;;;;;3.60;1.30;;;14.40;52.80;;;;;;21004453;28;20304;-75
2023/03/25 16:41:45;;;;;;;3.67;1.10;;;14.30;53.40;;;;;;20992703;28;20258;-76
2023/03/25 16:51:49;;;;;;;4.07;1.57;;;13.90;54.20;;;;;;20968251;28;20756;-78
2023/03/25 17:01:54;;;;;;;2.80;1.07;;;13.70;55.60;;;;;;20961142;28;20580;-74
2023/03/25 17:11:56;;;;;;;2.20;1.03;;;13.50;56.10;;;;;;20920434;28;20732;-74
2023/03/25 17:22:05;;;;;;;3.33;1.30;;;13.40;56.20;;;;;;20986651;28;20209;-72
2023/03/25 17:32:17;;;;;;;3.23;1.50;;;13.00;57.30;;;;;;21000720;28;20313;-74
2023/03/25 17:42:23;;;;;;;4.03;1.73;;;12.90;57.70;;;;;;20999793;28;20204;-73
2023/03/25 17:52:26;;;;;;;6.73;1.70;;;12.70;59.10;;;;;;20961259;28;20253;-73
2023/03/25 18:02:31;;;;;;;5.53;2.27;;;12.50;59.80;;;;;;20914671;28;20207;-78
2023/03/25 18:12:32;;;;;;;5.27;2.17;;;12.30;60.70;;;;;;20915412;28;20257;-76
2023/03/25 18:22:35;;;;;;;5.37;1.80;;;12.20;61.00;;;;;;20913868;28;20208;-75
2023/03/25 18:32:37;;;;;;;6.57;1.43;;;12.10;60.90;;;;;;20912535;28;20292;-73
2023/03/25 18:42:38;;;;;;;5.67;1.40;;;12.10;60.20;;;;;;20913875;28;20238;-79
2023/03/25 18:52:40;;;;;;;3.63;1.37;;;12.30;60.90;;;;;;20951404;28;20235;-76
2023/03/25 19:02:42;;;;;;;2.70;1.20;;;12.20;63.10;;;;;;20994551;28;20237;-82
2023/03/25 19:12:44;;;;;;;1.70;1.00;;;12.10;65.40;;;;;;21000626;28;20245;-78
2023/03/25 19:22:47;;;;;;;6.03;1.07;;;11.70;67.40;;;;;;21000564;28;20281;-79
2023/03/25 19:32:52;;;;;;;2.23;0.90;;;11.40;68.10;;;;;;21007202;28;20237;-80
2023/03/25 19:42:56;;;;;;;2.47;0.70;;;11.20;69.70;;;;;;21011194;28;20663;-76
2023/03/25 19:53:01;;;;;;;1.00;0.60;;;11.00;70.70;;;;;;20987161;28;20355;-77
2023/03/25 20:03:03;;;;;;;0.80;0.60;;;;;;;;;;20925968;28;20209;-78
2023/03/25 20:13:06;;;;;;;1.67;1.00;;;10.70;73.70;;;;;;20922070;28;20330;-75
2023/03/25 20:23:08;;;;;;;1.37;1.00;;;10.80;74.80;;;;;;20919770;28;20608;-78
2023/03/25 20:33:10;;;;;;;2.43;1.10;;;10.70;76.30;;;;;;20920814;28;20258;-81
2023/03/25 20:43:12;;;;;;;2.20;0.90;;;10.60;78.00;;;;;;20920004;28;20545;-77
2023/03/25 20:53:15;;;;;;;2.40;0.90;;;10.60;78.50;;;;;;20962919;28;20233;-78
2023/03/25 21:03:17;;;;;;;5.27;1.00;;;10.50;82.00;;;;;;21000875;28;20541;-79
2023/03/25 21:13:18;;;;;;;5.33;1.20;;;10.60;83.60;;;;;;20999679;28;20276;-78
2023/03/25 21:23:27;;;;;;;2.20;1.13;;;10.60;85.40;;;;;;20999730;28;20207;-80
2023/03/25 21:33:32;;;;;;;4.17;1.50;;;10.50;87.40;;;;;;20999737;28;20599;-79
2023/03/25 21:43:36;;;;;;;5.20;1.40;;;10.40;88.80;;;;;;20998576;28;20211;-80
2023/03/25 21:53:42;;;;;;;3.57;1.43;;;10.20;90.10;;;;;;20949613;28;20232;-80
2023/03/25 22:03:45;;;;;;;4.30;1.20;;;10.20;90.40;;;;;;20914031;28;20619;-79
2023/03/25 22:13:47;;;;;;;3.20;1.30;;;10.20;90.90;;;;;;20913249;28;20716;-79
2023/03/25 22:23:53;;;;;;;4.20;1.58;;;10.10;90.90;;;;;;20906600;28;20799;-79
2023/03/25 22:34:02;;;;;;;4.57;1.47;;;10.20;91.20;;;;;;20911852;28;20320;-81
2023/03/25 22:44:04;;;;;;;2.47;1.17;;;10.10;91.30;;;;;;20911543;28;20207;-81
2023/03/25 22:54:08;;;;;;;4.27;1.40;;;10.10;91.50;;;;;;20911087;28;20239;-82
2023/03/25 23:04:10;;;;;;;3.00;1.10;;;10.10;91.60;;;;;;20909798;28;20229;-81
2023/03/25 23:14:12;;;;;;;4.27;1.27;;;10.20;91.80;;;;;;20910125;28;20232;-75
2023/03/25 23:24:14;;;;;;;3.50;1.23;;;10.20;91.90;;;;;;20947579;28;20653;-75
2023/03/25 23:34:16;;;;;;;4.23;1.13;;;10.10;92.00;;;;;;20991892;28;20232;-77
2023/03/25 23:44:18;;;;;;;6.07;1.40;;;10.00;92.10;;;;;;20991821;28;20222;-77
2023/03/25 23:54:19;;;;;;;3.77;1.40;;;10.00;92.20;;;;;;20992593;28;20664;-75
